Time;durP1;ratioP1;P1;durP2;ratioP2;P2;SDS_P1;SDS_P2;PMS_P1;PMS_P2;Temp;Humidity;BMP_temperature;BMP_pressure;BME280_temperature;BME280_humidity;BME280_pressure;Samples;Min_cycle;Max_cycle;Signal;HPM_P1;HPM_P2
2024/01/16 00:01:07;;;;;;;9.05;6.70;;;4.70;99.90;;;;;;5035001;28;20021;-62
2024/01/16 00:03:33;;;;;;;6.93;5.18;;;4.60;99.90;;;;;;5035385;28;20021;-68
2024/01/16 00:06:00;;;;;;;7.25;5.07;;;4.40;99.90;;;;;;5035234;28;20017;-69
2024/01/16 00:08:25;;;;;;;7.28;5.50;;;4.40;99.90;;;;;;5035233;28;20104;-61
2024/01/16 00:10:51;;;;;;;8.10;6.38;;;4.50;99.90;;;;;;5035072;28;20053;-64
2024/01/16 00:13:17;;;;;;;7.80;5.35;;;4.40;99.90;;;;;;5034990;28;20025;-66
2024/01/16 00:15:43;;;;;;;6.25;4.80;;;4.50;99.90;;;;;;5035029;28;20109;-64
2024/01/16 00:18:09;;;;;;;6.82;4.72;;;4.50;99.90;;;;;;5034585;28;20388;-68
2024/01/16 00:20:35;;;;;;;9.20;5.47;;;4.50;99.90;;;;;;5034359;28;20099;-68
2024/01/16 00:23:01;;;;;;;6.32;4.25;;;4.40;99.90;;;;;;5034514;28;20052;-64
2024/01/16 00:25:26;;;;;;;5.97;4.53;;;4.30;99.90;;;;;;5034400;28;20063;-65
2024/01/16 00:27:52;;;;;;;5.65;3.83;;;4.40;99.90;;;;;;5034723;28;20021;-72
2024/01/16 00:30:18;;;;;;;7.07;5.03;;;4.40;99.90;;;;;;5034615;28;20018;-64
2024/01/16 00:32:44;;;;;;;5.00;4.07;;;4.50;99.90;;;;;;5034443;28;20033;-72
2024/01/16 00:35:10;;;;;;;4.72;3.83;;;4.50;99.90;;;;;;5034395;28;20022;-69
2024/01/16 00:37:39;;;;;;;5.00;3.92;;;4.50;99.90;;;;;;5034448;28;20029;-64
2024/01/16 00:40:08;;;;;;;6.32;4.82;;;4.50;99.90;;;;;;5034353;28;20029;-68
2024/01/16 00:42:34;;;;;;;9.55;6.30;;;4.50;99.90;;;;;;5034430;28;20383;-65
2024/01/16 00:45:00;;;;;;;13.43;9.50;;;4.50;99.90;;;;;;5034342;28;20441;-69
2024/01/16 00:47:26;;;;;;;18.75;14.05;;;4.30;99.90;;;;;;5034078;28;20598;-64
2024/01/16 00:49:52;;;;;;;14.82;10.52;;;4.20;99.90;;;;;;5034188;28;20052;-61
2024/01/16 00:52:18;;;;;;;12.57;9.82;;;4.20;99.90;;;;;;5034339;28;20075;-67
2024/01/16 00:54:44;;;;;;;13.70;10.43;;;4.30;99.90;;;;;;5034214;28;20028;-65
2024/01/16 00:57:10;;;;;;;12.57;8.95;;;4.40;99.90;;;;;;5034125;28;20025;-68
2024/01/16 00:59:36;;;;;;;30.98;20.50;;;4.50;99.90;;;;;;5033789;28;20029;-70
2024/01/16 01:02:03;;;;;;;38.20;23.92;;;4.60;99.90;;;;;;5033836;28;20383;-65
2024/01/16 01:04:29;;;;;;;40.17;28.67;;;4.60;99.90;;;;;;5033971;28;20022;-66
2024/01/16 01:06:55;;;;;;;28.52;18.90;;;4.40;99.90;;;;;;5033832;28;20017;-64
2024/01/16 01:09:21;;;;;;;25.77;19.27;;;4.30;99.90;;;;;;5033796;28;20091;-68
2024/01/16 01:11:46;;;;;;;30.50;20.98;;;4.40;99.90;;;;;;5033654;28;20041;-66
2024/01/16 01:14:12;;;;;;;32.35;22.17;;;4.50;99.90;;;;;;5033606;28;20025;-71
2024/01/16 01:16:38;;;;;;;21.30;16.15;;;4.50;99.90;;;;;;5033754;28;20026;-67
2024/01/16 01:19:04;;;;;;;19.58;15.20;;;4.50;99.90;;;;;;5033243;28;20049;-67
2024/01/16 01:21:29;;;;;;;17.92;13.88;;;4.50;99.90;;;;;;5033663;28;20056;-67
2024/01/16 01:23:55;;;;;;;20.40;14.88;;;4.50;99.90;;;;;;5033690;28;20022;-67
2024/01/16 01:26:21;;;;;;;17.17;13.35;;;4.50;99.90;;;;;;5033453;28;20091;-70
2024/01/16 01:28:47;;;;;;;17.00;13.15;;;4.50;99.90;;;;;;5033559;28;20032;-71
2024/01/16 01:31:13;;;;;;;14.52;10.73;;;4.50;99.90;;;;;;5033493;28;20373;-69
2024/01/16 01:33:39;;;;;;;15.30;11.77;;;4.50;99.90;;;;;;5033363;28;20022;-70
2024/01/16 01:36:05;;;;;;;17.38;13.55;;;4.60;99.90;;;;;;5033612;28;20017;-61
2024/01/16 01:38:31;;;;;;;21.77;16.60;;;4.50;99.90;;;;;;5033619;28;20021;-71
2024/01/16 01:40:57;;;;;;;28.17;20.77;;;4.40;99.90;;;;;;5033282;28;20381;-68
2024/01/16 01:43:24;;;;;;;19.60;14.30;;;4.40;99.90;;;;;;5033199;28;20025;-65
2024/01/16 01:46:10;;;;;;;19.40;14.27;;;4.40;99.90;;;;;;5032734;28;20538;-61
2024/01/16 01:48:40;;;;;;;18.48;14.25;;;4.40;99.90;;;;;;5033255;28;20032;-72
2024/01/16 01:51:06;;;;;;;29.40;19.70;;;4.50;99.90;;;;;;5033527;28;20431;-62
2024/01/16 01:53:34;;;;;;;32.25;22.75;;;4.60;99.90;;;;;;5033432;28;20051;-72
2024/01/16 01:56:05;;;;;;;32.03;21.95;;;4.50;99.90;;;;;;5033265;28;20491;-68
2024/01/16 01:58:32;;;;;;;26.48;19.70;;;4.50;99.90;;;;;;5033303;28;20025;-66
2024/01/16 02:00:59;;;;;;;21.45;16.85;;;4.40;99.90;;;;;;5033174;28;20033;-68
2024/01/16 02:03:27;;;;;;;21.98;17.55;;;4.40;99.90;;;;;;5033376;28;20021;-65
2024/01/16 02:05:53;;;;;;;23.65;17.30;;;4.50;99.90;;;;;;5033549;28;20104;-69
2024/01/16 02:08:19;;;;;;;22.15;17.10;;;4.50;99.90;;;;;;5033389;28;20439;-60
2024/01/16 02:10:49;;;;;;;25.58;18.55;;;4.60;99.90;;;;;;5033070;28;20025;-66
2024/01/16 02:13:15;;;;;;;20.38;15.82;;;4.60;99.90;;;;;;5033261;28;20037;-68
2024/01/16 02:15:41;;;;;;;20.50;15.13;;;4.60;99.90;;;;;;5033314;28;20175;-67
2024/01/16 02:18:07;;;;;;;20.08;15.60;;;4.60;99.90;;;;;;5033155;28;20032;-69
2024/01/16 02:20:33;;;;;;;21.55;16.15;;;4.50;99.90;;;;;;5032915;28;20045;-71
2024/01/16 02:23:03;;;;;;;25.50;19.48;;;4.50;99.90;;;;;;5033060;28;20029;-63
2024/01/16 02:25:29;;;;;;;24.65;18.92;;;4.50;99.90;;;;;;5033244;28;20018;-66
2024/01/16 02:27:54;;;;;;;23.35;17.33;;;4.50;99.90;;;;;;5032810;28;20068;-69
2024/01/16 02:30:20;;;;;;;20.38;15.55;;;4.40;99.90;;;;;;5033255;28;20041;-70
2024/01/16 02:32:46;;;;;;;17.38;13.48;;;4.40;99.90;;;;;;5033095;28;20033;-66
2024/01/16 02:35:11;;;;;;;18.48;13.73;;;4.40;99.90;;;;;;5032849;28;20021;-68
2024/01/16 02:37:37;;;;;;;17.67;12.85;;;4.40;99.90;;;;;;5032876;28;20018;-66
2024/01/16 02:40:05;;;;;;;18.95;14.70;;;4.40;99.90;;;;;;5032780;28;20057;-63
2024/01/16 02:42:34;;;;;;;16.60;12.70;;;4.50;99.90;;;;;;5032640;28;20138;-65
2024/01/16 02:45:00;;;;;;;17.00;13.00;;;4.50;99.90;;;;;;5032769;28;20100;-66
2024/01/16 02:47:26;;;;;;;16.63;11.98;;;4.50;99.90;;;;;;5032715;28;20106;-68
2024/01/16 02:49:52;;;;;;;14.57;12.35;;;4.50;99.90;;;;;;5033095;28;20055;-67
2024/01/16 02:52:18;;;;;;;22.30;16.92;;;4.50;99.90;;;;;;5032802;28;20025;-67
2024/01/16 02:54:44;;;;;;;17.50;13.35;;;4.50;99.90;;;;;;5031534;28;20022;-66
2024/01/16 02:57:10;;;;;;;15.73;12.38;;;4.50;99.90;;;;;;5033789;28;20091;-67
2024/01/16 02:59:35;;;;;;;13.63;11.48;;;4.50;99.90;;;;;;5036250;28;20032;-68
2024/01/16 03:02:01;;;;;;;15.27;12.35;;;4.40;99.90;;;;;;5036261;28;20028;-69
2024/01/16 03:04:27;;;;;;;15.57;12.68;;;4.40;99.90;;;;;;5036091;28;20041;-66
2024/01/16 03:06:52;;;;;;;13.48;10.75;;;4.50;99.90;;;;;;5036179;28;20030;-71
2024/01/16 03:09:18;;;;;;;15.25;11.77;;;4.40;99.90;;;;;;5036091;28;20055;-70
2024/01/16 03:11:43;;;;;;;14.80;11.75;;;4.40;99.90;;;;;;5035775;28;20025;-64
2024/01/16 03:14:09;;;;;;;15.68;12.10;;;4.40;99.90;;;;;;5036257;28;20045;-64
2024/01/16 03:16:35;;;;;;;14.80;11.10;;;4.30;99.90;;;;;;5036000;28;20029;-68
2024/01/16 03:19:01;;;;;;;12.20;10.45;;;4.30;99.90;;;;;;5035670;28;20050;-60
2024/01/16 03:21:26;;;;;;;14.93;11.90;;;4.30;99.90;;;;;;5035910;28;20506;-68
2024/01/16 03:23:52;;;;;;;10.25;8.43;;;4.40;99.90;;;;;;5035822;28;20021;-64
2024/01/16 03:26:18;;;;;;;15.70;12.50;;;4.40;99.90;;;;;;5035627;28;20022;-72
2024/01/16 03:28:44;;;;;;;12.25;9.52;;;4.40;99.90;;;;;;5036167;28;20018;-70
2024/01/16 03:31:09;;;;;;;14.98;11.75;;;4.40;99.90;;;;;;5036011;28;20526;-68
2024/01/16 03:33:35;;;;;;;18.20;13.52;;;4.40;99.90;;;;;;5035728;28;20037;-71
2024/01/16 03:36:01;;;;;;;23.00;17.63;;;4.40;99.90;;;;;;5035621;28;20025;-65
2024/01/16 03:38:27;;;;;;;18.17;13.52;;;4.40;99.90;;;;;;5035676;28;20392;-65
2024/01/16 03:40:52;;;;;;;16.00;13.25;;;4.30;99.90;;;;;;5035252;28;20028;-66
2024/01/16 03:43:18;;;;;;;25.13;18.25;;;4.30;99.90;;;;;;5035643;28;20025;-63
2024/01/16 03:45:44;;;;;;;37.38;26.20;;;4.30;99.90;;;;;;5035629;28;20064;-65
2024/01/16 03:48:10;;;;;;;21.67;17.50;;;4.20;99.90;;;;;;5035511;28;20021;-62
2024/01/16 03:50:36;;;;;;;26.02;18.73;;;4.10;99.90;;;;;;5035137;28;20026;-68
2024/01/16 03:53:03;;;;;;;25.23;19.73;;;4.20;99.90;;;;;;5035399;28;20066;-62
2024/01/16 03:55:30;;;;;;;18.65;15.38;;;4.30;99.90;;;;;;5035092;28;20026;-65
2024/01/16 03:57:56;;;;;;;19.23;15.48;;;4.30;99.90;;;;;;5035037;28;20036;-62
2024/01/16 04:00:22;;;;;;;20.25;16.15;;;4.30;99.90;;;;;;5035066;28;20022;-63
2024/01/16 04:02:47;;;;;;;24.02;17.98;;;4.30;99.90;;;;;;5034905;28;20041;-67
2024/01/16 04:05:13;;;;;;;23.95;18.77;;;4.40;99.90;;;;;;5034891;28;20023;-69
2024/01/16 04:07:39;;;;;;;20.35;14.90;;;4.40;99.90;;;;;;5034558;28;20017;-71
2024/01/16 04:10:06;;;;;;;26.02;18.58;;;4.30;99.90;;;;;;5034725;28;20041;-61
2024/01/16 04:12:32;;;;;;;26.67;19.13;;;4.30;99.90;;;;;;5034842;28;20057;-69
2024/01/16 04:14:57;;;;;;;26.75;18.10;;;4.20;99.90;;;;;;5034921;28;20110;-73
2024/01/16 04:17:23;;;;;;;26.45;17.65;;;4.20;99.90;;;;;;5034804;28;20017;-71
2024/01/16 04:19:48;;;;;;;19.05;14.80;;;4.10;99.90;;;;;;5034529;28;20046;-64
2024/01/16 04:22:14;;;;;;;22.58;16.10;;;4.10;99.90;;;;;;5034758;28;20025;-64
2024/01/16 04:24:40;;;;;;;20.17;15.10;;;4.00;99.90;;;;;;5034393;28;20029;-66
2024/01/16 04:27:05;;;;;;;16.95;12.77;;;4.00;99.90;;;;;;5034810;28;20379;-63
2024/01/16 04:29:31;;;;;;;18.20;12.38;;;4.10;99.90;;;;;;5034512;28;20029;-67
2024/01/16 04:31:57;;;;;;;16.48;12.63;;;4.10;99.90;;;;;;5034531;28;20040;-71
2024/01/16 04:34:23;;;;;;;15.55;11.05;;;4.20;99.90;;;;;;5034666;28;20060;-62
2024/01/16 04:36:48;;;;;;;19.90;13.38;;;4.20;99.90;;;;;;5034620;28;20053;-68
2024/01/16 04:39:14;;;;;;;21.70;16.73;;;4.20;99.90;;;;;;5034217;28;20025;-66
2024/01/16 04:41:40;;;;;;;27.55;21.70;;;4.20;99.90;;;;;;5034215;28;20388;-70
2024/01/16 04:44:06;;;;;;;21.33;16.60;;;4.10;99.90;;;;;;5034465;28;20375;-69
2024/01/16 04:46:31;;;;;;;16.77;14.65;;;4.00;99.90;;;;;;5034387;28;20437;-67
2024/01/16 04:48:57;;;;;;;13.50;11.23;;;4.00;99.90;;;;;;5034248;28;20022;-68
2024/01/16 04:51:23;;;;;;;11.73;10.10;;;4.00;99.90;;;;;;5034129;28;20034;-68
2024/01/16 04:53:48;;;;;;;10.93;8.80;;;4.20;99.90;;;;;;5034482;28;20032;-71
2024/01/16 04:56:14;;;;;;;9.50;7.70;;;4.20;99.90;;;;;;5034217;28;20025;-68
2024/01/16 04:58:40;;;;;;;10.15;7.65;;;4.10;99.90;;;;;;5034051;28;20014;-66
2024/01/16 05:01:05;;;;;;;8.50;6.35;;;4.10;99.90;;;;;;5034062;28;20438;-67
2024/01/16 05:03:31;;;;;;;7.93;6.35;;;4.20;99.90;;;;;;5033934;28;20018;-66
2024/01/16 05:05:57;;;;;;;8.25;6.47;;;4.20;99.90;;;;;;5033874;28;20032;-69
2024/01/16 05:08:23;;;;;;;6.80;5.70;;;4.20;99.90;;;;;;5034011;28;20045;-67
2024/01/16 05:10:48;;;;;;;9.73;8.13;;;4.20;99.90;;;;;;5034020;28;20067;-69
2024/01/16 05:13:14;;;;;;;8.27;7.38;;;4.20;99.90;;;;;;5034099;28;20029;-69
2024/01/16 05:15:42;;;;;;;7.15;6.28;;;4.20;99.90;;;;;;5033867;28;20098;-72
2024/01/16 05:18:07;;;;;;;9.10;7.70;;;4.20;99.90;;;;;;5033944;28;20079;-69
2024/01/16 05:20:33;;;;;;;11.63;8.73;;;4.20;99.90;;;;;;5032625;28;20057;-70
2024/01/16 05:22:58;;;;;;;7.50;6.43;;;4.20;99.90;;;;;;5033979;28;20030;-65
2024/01/16 05:25:24;;;;;;;8.95;8.05;;;4.20;99.90;;;;;;5034034;28;20586;-71
2024/01/16 05:27:50;;;;;;;8.55;7.60;;;4.10;99.90;;;;;;5033747;28;20026;-64
2024/01/16 05:30:16;;;;;;;9.25;7.38;;;4.10;99.90;;;;;;5033723;28;20024;-68
2024/01/16 05:32:42;;;;;;;13.30;11.90;;;4.10;99.90;;;;;;5033434;28;20026;-63
2024/01/16 05:35:09;;;;;;;9.95;8.82;;;4.10;99.90;;;;;;5033579;28;20021;-67
2024/01/16 05:37:35;;;;;;;8.88;7.97;;;4.00;99.90;;;;;;5033945;28;20040;-73
2024/01/16 05:40:03;;;;;;;8.18;7.38;;;4.00;99.90;;;;;;5033476;28;20021;-70
2024/01/16 05:42:29;;;;;;;7.53;6.82;;;4.00;99.90;;;;;;5033707;28;20061;-69
2024/01/16 05:44:55;;;;;;;7.07;6.38;;;4.00;99.90;;;;;;5033941;28;20021;-60
2024/01/16 05:47:20;;;;;;;6.97;6.05;;;4.00;99.90;;;;;;5033708;28;20021;-68
2024/01/16 05:49:46;;;;;;;7.18;6.47;;;4.00;99.90;;;;;;5033465;28;20029;-67
2024/01/16 05:52:12;;;;;;;7.00;6.03;;;4.00;99.90;;;;;;5033243;28;20113;-66
2024/01/16 05:54:37;;;;;;;8.82;7.90;;;4.10;99.90;;;;;;5033383;28;20022;-65
2024/01/16 05:57:03;;;;;;;7.35;6.55;;;4.10;99.90;;;;;;5033344;28;20022;-63
2024/01/16 05:59:29;;;;;;;10.10;8.60;;;4.00;99.90;;;;;;5033584;28;20017;-65
2024/01/16 06:01:55;;;;;;;9.18;6.13;;;4.10;99.90;;;;;;5033353;28;20115;-68
2024/01/16 06:04:20;;;;;;;6.13;5.57;;;4.10;99.90;;;;;;5033057;28;20056;-68
2024/01/16 06:06:47;;;;;;;8.73;7.00;;;4.10;99.90;;;;;;5033909;28;20052;-71
2024/01/16 06:09:16;;;;;;;13.65;10.07;;;4.20;99.90;;;;;;5033607;28;20029;-69
2024/01/16 06:11:42;;;;;;;13.10;10.63;;;4.20;99.90;;;;;;5033242;28;20061;-60
2024/01/16 06:14:08;;;;;;;10.75;9.13;;;4.10;99.90;;;;;;5033602;28;20080;-68
2024/01/16 06:16:34;;;;;;;14.90;11.38;;;4.00;99.90;;;;;;5033480;28;20025;-61
2024/01/16 06:18:59;;;;;;;12.45;11.15;;;4.00;99.90;;;;;;5032929;28;20051;-67
2024/01/16 06:21:26;;;;;;;11.40;10.20;;;4.00;99.90;;;;;;5033356;28;20025;-69
2024/01/16 06:23:52;;;;;;;12.68;11.23;;;4.10;99.90;;;;;;5033672;28;20029;-66
2024/01/16 06:26:18;;;;;;;18.88;15.77;;;4.20;99.90;;;;;;5032088;28;20083;-66
2024/01/16 06:28:43;;;;;;;14.32;12.82;;;4.20;99.90;;;;;;5033138;28;20018;-70
2024/01/16 06:31:09;;;;;;;19.35;15.88;;;4.30;99.90;;;;;;5034748;28;20056;-72
2024/01/16 06:33:35;;;;;;;18.23;15.73;;;4.30;99.90;;;;;;5036752;28;20049;-71
2024/01/16 06:36:05;;;;;;;17.90;14.23;;;4.30;99.90;;;;;;5037275;28;20411;-70
2024/01/16 06:38:31;;;;;;;13.85;12.23;;;4.20;99.90;;;;;;5037188;28;20022;-70
2024/01/16 06:40:57;;;;;;;13.05;11.63;;;4.20;99.90;;;;;;5037031;28;20038;-64
2024/01/16 06:43:23;;;;;;;26.38;22.30;;;4.20;99.90;;;;;;5037050;28;20025;-66
2024/01/16 06:45:49;;;;;;;34.38;26.83;;;4.20;99.90;;;;;;5036882;28;20078;-66
2024/01/16 06:48:15;;;;;;;32.15;24.85;;;4.10;99.90;;;;;;5036498;28;20021;-68
2024/01/16 06:50:41;;;;;;;35.22;27.33;;;4.00;99.90;;;;;;5036911;28;20844;-72
2024/01/16 06:53:07;;;;;;;37.22;27.70;;;4.00;99.90;;;;;;5036879;28;20112;-67
2024/01/16 06:55:33;;;;;;;30.55;23.10;;;4.00;99.90;;;;;;5036645;28;20108;-65
2024/01/16 06:57:59;;;;;;;26.95;21.58;;;4.00;99.90;;;;;;5042341;28;20034;-66
2024/01/16 07:00:26;;;;;;;27.48;22.00;;;4.10;99.90;;;;;;5051921;28;20032;-62
2024/01/16 07:02:54;;;;;;;39.75;28.08;;;4.20;99.90;;;;;;5043716;28;20036;-68
2024/01/16 07:05:20;;;;;;;31.13;24.13;;;4.20;99.90;;;;;;5036517;28;20112;-68
2024/01/16 07:07:45;;;;;;;76.50;56.35;;;4.30;99.90;;;;;;5043898;28;20052;-73
2024/01/16 07:10:18;;;;;;;57.25;41.72;;;4.30;99.90;;;;;;5036386;28;20045;-66
2024/01/16 07:12:47;;;;;;;56.30;40.28;;;4.30;99.90;;;;;;5051144;28;20120;-74
2024/01/16 07:15:13;;;;;;;39.95;32.75;;;4.40;99.90;;;;;;5056393;28;20064;-62
2024/01/16 07:17:39;;;;;;;38.33;30.73;;;4.40;99.90;;;;;;5052570;28;20132;-66
2024/01/16 07:20:05;;;;;;;36.55;29.80;;;4.50;99.90;;;;;;5053541;28;20084;-67
2024/01/16 07:22:31;;;;;;;38.47;29.65;;;4.60;99.90;;;;;;5056288;28;20025;-64
2024/01/16 07:24:57;;;;;;;38.97;30.77;;;4.60;99.90;;;;;;5056311;28;20459;-71
2024/01/16 07:27:22;;;;;;;32.90;27.25;;;4.60;99.90;;;;;;5047707;28;20021;-70
2024/01/16 07:29:48;;;;;;;31.13;27.50;;;4.70;99.90;;;;;;5036375;28;20022;-67
2024/01/16 07:32:14;;;;;;;30.05;26.02;;;4.70;99.90;;;;;;5035838;28;20026;-67
2024/01/16 07:34:40;;;;;;;31.40;25.80;;;4.70;99.90;;;;;;5035607;28;20064;-66
2024/01/16 07:37:05;;;;;;;34.42;27.83;;;4.80;99.90;;;;;;5035983;28;20495;-67
2024/01/16 07:39:31;;;;;;;27.05;23.73;;;4.80;99.90;;;;;;5036291;28;20388;-72
2024/01/16 07:41:57;;;;;;;39.08;31.50;;;4.90;99.90;;;;;;5035554;28;20108;-63
2024/01/16 07:44:23;;;;;;;32.80;26.40;;;5.00;99.90;;;;;;5035772;28;20424;-64
2024/01/16 07:46:49;;;;;;;28.80;22.67;;;5.00;99.90;;;;;;5035783;28;20103;-68
2024/01/16 07:49:16;;;;;;;40.83;32.95;;;5.00;99.90;;;;;;5035807;28;20025;-65
2024/01/16 07:51:41;;;;;;;30.45;25.88;;;5.00;99.90;;;;;;5035384;28;20456;-68
2024/01/16 07:54:09;;;;;;;30.20;24.77;;;5.00;99.90;;;;;;5035353;28;20056;-65
2024/01/16 07:56:36;;;;;;;30.60;25.10;;;5.10;99.90;;;;;;5035364;28;20383;-73
2024/01/16 07:59:02;;;;;;;29.10;23.65;;;5.20;99.90;;;;;;5035583;28;20087;-67
2024/01/16 08:01:28;;;;;;;28.85;24.80;;;5.30;99.90;;;;;;5035213;28;20475;-70
2024/01/16 08:03:55;;;;;;;25.00;21.95;;;5.40;99.90;;;;;;5035613;28;20083;-67
2024/01/16 08:06:21;;;;;;;27.08;23.52;;;5.50;99.90;;;;;;5035131;28;20056;-63
2024/01/16 08:08:48;;;;;;;28.63;24.55;;;5.60;99.90;;;;;;5035042;28;20099;-68
2024/01/16 08:11:14;;;;;;;29.55;26.35;;;5.60;99.90;;;;;;5035372;28;20155;-72
2024/01/16 08:13:40;;;;;;;25.90;22.05;;;5.70;99.90;;;;;;5035533;28;20104;-67
2024/01/16 08:16:05;;;;;;;25.08;22.05;;;5.70;99.90;;;;;;5035181;28;20022;-65
2024/01/16 08:18:31;;;;;;;22.42;20.02;;;5.70;99.90;;;;;;5035193;28;20486;-68
2024/01/16 08:20:57;;;;;;;21.05;17.70;;;5.80;99.90;;;;;;5035097;28;20026;-68
2024/01/16 08:23:23;;;;;;;19.17;17.17;;;5.90;99.90;;;;;;5035200;28;20097;-74
2024/01/16 08:25:49;;;;;;;19.30;16.88;;;6.00;99.90;;;;;;5035130;28;20049;-64
2024/01/16 08:28:14;;;;;;;19.80;17.65;;;6.20;99.90;;;;;;5035128;28;20021;-66
2024/01/16 08:30:40;;;;;;;18.15;14.93;;;6.30;99.90;;;;;;5034702;28;20109;-69
2024/01/16 08:33:07;;;;;;;17.65;15.07;;;6.40;99.90;;;;;;5034705;28;20045;-72
2024/01/16 08:35:33;;;;;;;16.95;14.48;;;6.60;99.90;;;;;;5035253;28;20029;-68
2024/01/16 08:37:58;;;;;;;15.13;13.50;;;6.70;99.90;;;;;;5034603;28;20417;-65
2024/01/16 08:40:25;;;;;;;13.75;12.25;;;6.90;99.60;;;;;;5044707;28;20079;-61
2024/01/16 08:42:51;;;;;;;15.57;13.43;;;7.10;99.40;;;;;;5054538;28;20056;-65
2024/01/16 08:45:17;;;;;;;22.10;17.60;;;7.30;96.80;;;;;;5054080;28;20031;-68
2024/01/16 08:47:43;;;;;;;17.65;15.75;;;7.40;96.10;;;;;;5054402;28;20060;-60
2024/01/16 08:50:09;;;;;;;18.30;16.17;;;7.60;96.90;;;;;;5053561;28;20021;-61
2024/01/16 08:52:35;;;;;;;20.95;17.30;;;7.70;96.20;;;;;;5054023;28;20086;-68
2024/01/16 08:55:01;;;;;;;24.48;18.73;;;7.80;96.60;;;;;;5054211;28;20052;-68
2024/01/16 08:57:27;;;;;;;23.20;19.17;;;7.90;96.20;;;;;;5054237;28;20029;-64
2024/01/16 08:59:53;;;;;;;20.33;17.42;;;8.00;94.80;;;;;;5053990;28;20048;-73
2024/01/16 09:02:19;;;;;;;20.92;17.50;;;8.00;92.40;;;;;;5053975;28;20025;-66
2024/01/16 09:04:45;;;;;;;20.25;18.08;;;8.00;93.40;;;;;;5054271;28;20020;-71
2024/01/16 09:07:15;;;;;;;29.73;26.45;;;8.20;93.70;;;;;;5053958;28;20028;-70
2024/01/16 09:09:42;;;;;;;46.05;36.00;;;8.30;91.90;;;;;;5053822;28;20029;-64
2024/01/16 09:12:11;;;;;;;28.00;24.58;;;8.40;92.20;;;;;;5053620;28;20040;-65
2024/01/16 09:14:37;;;;;;;25.90;23.17;;;8.70;92.20;;;;;;5053619;28;20386;-63
2024/01/16 09:17:03;;;;;;;25.45;22.05;;;9.30;90.20;;;;;;5053530;28;20100;-66
2024/01/16 09:19:29;;;;;;;25.08;22.38;;;10.00;82.10;;;;;;5053542;28;20041;-66
2024/01/16 09:21:55;;;;;;;22.50;20.05;;;10.20;70.30;;;;;;5053812;28;20033;-65
2024/01/16 09:24:22;;;;;;;23.77;20.80;;;10.40;69.90;;;;;;5053679;28;20049;-67
2024/01/16 09:26:48;;;;;;;21.52;19.30;;;10.40;67.40;;;;;;5053599;28;20027;-63
2024/01/16 09:29:14;;;;;;;20.77;18.55;;;10.30;62.90;;;;;;5053068;28;20052;-64
2024/01/16 09:31:41;;;;;;;19.08;17.17;;;10.00;64.40;;;;;;5053158;28;20029;-68
2024/01/16 09:34:06;;;;;;;18.42;16.52;;;9.80;67.90;;;;;;5053241;28;20078;-67
2024/01/16 09:36:35;;;;;;;17.75;15.85;;;9.70;68.60;;;;;;5052121;28;20032;-65
2024/01/16 09:39:02;;;;;;;18.38;16.38;;;9.90;70.30;;;;;;5053153;28;20033;-65
2024/01/16 09:41:28;;;;;;;17.50;15.73;;;10.30;64.50;;;;;;5053147;28;20524;-63
2024/01/16 09:43:54;;;;;;;18.10;16.20;;;10.50;66.70;;;;;;5051835;28;20388;-64
2024/01/16 09:46:25;;;;;;;18.65;16.73;;;10.80;65.10;;;;;;5052406;28;20028;-64
2024/01/16 09:48:54;;;;;;;22.80;19.02;;;11.00;59.60;;;;;;5053394;28;20104;-61
2024/01/16 09:51:20;;;;;;;21.05;18.60;;;10.70;57.70;;;;;;5053104;28;20467;-65
2024/01/16 09:53:45;;;;;;;20.92;18.77;;;10.50;60.80;;;;;;5053159;28;20043;-66
2024/01/16 09:56:16;;;;;;;16.40;14.70;;;10.50;59.50;;;;;;5052977;28;20025;-65
2024/01/16 09:58:44;;;;;;;17.38;15.57;;;10.60;60.00;;;;;;5052900;28;20017;-63
2024/01/16 10:01:11;;;;;;;15.00;13.60;;;10.80;60.30;;;;;;5052966;28;20027;-65
2024/01/16 10:03:38;;;;;;;14.07;12.60;;;11.00;58.20;;;;;;5053478;28;20033;-67
2024/01/16 10:06:06;;;;;;;14.05;12.60;;;11.00;55.30;;;;;;5053809;28;20471;-69
2024/01/16 10:08:32;;;;;;;13.10;11.80;;;11.00;56.30;;;;;;5057032;28;20068;-63
2024/01/16 10:10:58;;;;;;;13.25;12.05;;;11.00;56.50;;;;;;5057176;28;20028;-65
2024/01/16 10:13:25;;;;;;;12.13;10.93;;;11.20;58.60;;;;;;5056637;28;20032;-65
2024/01/16 10:15:52;;;;;;;12.45;11.15;;;11.60;58.20;;;;;;5057236;28;20035;-63
2024/01/16 10:18:30;;;;;;;12.80;11.48;;;11.70;54.60;;;;;;5056863;28;20459;-68
2024/01/16 10:20:56;;;;;;;13.93;12.43;;;11.90;54.10;;;;;;5056735;28;20083;-66
2024/01/16 10:23:24;;;;;;;16.40;14.35;;;11.80;54.20;;;;;;5056875;28;20025;-67
2024/01/16 10:26:09;;;;;;;18.55;16.65;;;11.90;54.00;;;;;;5056728;28;20066;-66
2024/01/16 10:28:35;;;;;;;20.52;18.27;;;11.80;52.90;;;;;;5056091;28;20128;-65
2024/01/16 10:31:09;;;;;;;19.10;17.15;;;11.80;52.90;;;;;;5056687;28;20475;-66
2024/01/16 10:33:38;;;;;;;16.30;14.70;;;11.90;52.10;;;;;;5056517;28;20029;-64
2024/01/16 10:36:12;;;;;;;14.95;13.55;;;12.10;53.00;;;;;;5056498;28;20025;-66
2024/01/16 10:38:39;;;;;;;16.13;14.48;;;12.30;52.80;;;;;;5056906;28;20379;-69
2024/01/16 10:41:24;;;;;;;14.48;13.07;;;12.60;51.80;;;;;;5056364;28;20475;-67
2024/01/16 10:44:04;;;;;;;12.73;11.52;;;12.80;51.70;;;;;;5056397;28;20036;-66
2024/01/16 10:46:29;;;;;;;13.10;11.90;;;12.90;50.00;;;;;;5056718;28;20025;-64
2024/01/16 10:48:59;;;;;;;14.07;12.68;;;13.10;51.50;;;;;;5056331;28;20028;-65
2024/01/16 10:51:27;;;;;;;10.25;9.35;;;13.30;49.80;;;;;;5056437;28;20475;-63
2024/01/16 10:54:10;;;;;;;12.93;11.75;;;13.50;46.70;;;;;;5055857;28;20021;-67
2024/01/16 10:56:36;;;;;;;11.38;10.27;;;13.50;48.10;;;;;;5056030;28;20033;-69
2024/01/16 10:59:33;;;;;;;10.68;9.68;;;13.60;47.00;;;;;;5056212;28;20028;-65
2024/01/16 11:02:01;;;;;;;12.80;11.60;;;13.70;45.50;;;;;;5056311;28;20037;-63
2024/01/16 11:04:28;;;;;;;18.35;16.38;;;13.90;46.30;;;;;;5056157;28;20167;-65
2024/01/16 11:06:55;;;;;;;11.73;10.63;;;14.10;46.80;;;;;;5056098;28;20021;-67
2024/01/16 11:09:21;;;;;;;11.55;10.45;;;14.10;42.20;;;;;;5055668;28;20028;-64
2024/01/16 11:11:49;;;;;;;12.82;11.52;;;14.10;43.30;;;;;;5055850;28;20037;-63
2024/01/16 11:14:15;;;;;;;17.10;15.45;;;14.30;43.70;;;;;;5056130;28;20017;-64
2024/01/16 11:16:42;;;;;;;12.18;10.98;;;14.50;43.40;;;;;;5055515;28;20025;-66
2024/01/16 11:19:11;;;;;;;9.23;8.32;;;14.40;41.00;;;;;;5054711;28;20491;-67
2024/01/16 11:21:39;;;;;;;14.32;12.60;;;14.40;39.00;;;;;;5055776;28;20391;-68
2024/01/16 11:24:05;;;;;;;10.98;9.60;;;14.40;38.20;;;;;;5055576;28;20025;-65
2024/01/16 11:26:36;;;;;;;9.43;8.50;;;14.20;38.80;;;;;;5053538;28;20025;-68
2024/01/16 11:29:28;;;;;;;8.45;7.60;;;14.20;39.60;;;;;;5055541;28;20039;-66
2024/01/16 11:31:54;;;;;;;7.55;6.85;;;14.40;37.80;;;;;;5054929;28;20495;-68
2024/01/16 11:34:49;;;;;;;7.63;6.90;;;14.50;38.40;;;;;;5055556;28;20021;-66
2024/01/16 11:37:24;;;;;;;7.50;6.80;;;14.70;39.00;;;;;;5054883;28;20094;-67
2024/01/16 11:39:54;;;;;;;4.00;3.60;;;14.90;37.80;;;;;;5055340;28;20025;-66
2024/01/16 11:42:27;;;;;;;4.40;4.00;;;14.80;36.70;;;;;;5055552;28;20418;-62
2024/01/16 11:44:55;;;;;;;4.40;4.00;;;14.80;38.40;;;;;;5055574;28;20025;-67
2024/01/16 11:47:22;;;;;;;8.95;8.05;;;15.00;38.30;;;;;;5055527;28;20021;-68
2024/01/16 11:50:08;;;;;;;16.60;14.75;;;15.10;35.00;;;;;;5055177;28;20532;-69
2024/01/16 11:52:42;;;;;;;11.43;10.00;;;14.90;35.80;;;;;;5054894;28;20124;-62
2024/01/16 11:55:32;;;;;;;8.95;8.05;;;14.70;34.30;;;;;;5055085;28;20111;-62
2024/01/16 11:58:33;;;;;;;7.68;6.97;;;14.50;39.30;;;;;;5055087;28;20028;-66
2024/01/16 12:00:59;;;;;;;8.68;7.88;;;14.60;35.80;;;;;;5053917;28;20071;-65
2024/01/16 12:03:25;;;;;;;8.75;7.85;;;15.00;38.50;;;;;;5054911;28;20061;-66
2024/01/16 12:06:00;;;;;;;5.68;5.03;;;15.00;33.20;;;;;;5053890;28;20025;-63
2024/01/16 12:08:26;;;;;;;6.57;5.88;;;14.60;32.40;;;;;;5053821;28;20029;-61
2024/01/16 12:10:52;;;;;;;8.52;7.57;;;14.70;34.50;;;;;;5055275;28;20032;-64
2024/01/16 12:13:18;;;;;;;5.90;5.32;;;15.00;34.60;;;;;;5054728;28;20494;-66
2024/01/16 12:15:45;;;;;;;6.38;5.78;;;14.90;35.60;;;;;;5054886;28;20108;-62
2024/01/16 12:18:18;;;;;;;8.20;7.40;;;14.80;34.90;;;;;;5054628;28;20403;-63
2024/01/16 12:20:44;;;;;;;7.95;7.15;;;14.70;35.80;;;;;;5054478;28;20044;-64
2024/01/16 12:23:10;;;;;;;5.85;5.35;;;14.80;33.30;;;;;;5054391;28;20086;-61
2024/01/16 12:25:39;;;;;;;4.65;4.25;;;14.80;33.20;;;;;;5054599;28;20017;-62
2024/01/16 12:28:05;;;;;;;2.90;2.65;;;14.80;34.60;;;;;;5054567;28;20103;-65
2024/01/16 12:30:33;;;;;;;2.55;2.35;;;15.10;31.40;;;;;;5053993;28;20021;-66
2024/01/16 12:33:12;;;;;;;2.50;2.30;;;15.20;31.80;;;;;;5053097;28;20452;-64
2024/01/16 12:35:42;;;;;;;4.80;4.40;;;15.40;34.40;;;;;;5054161;28;20095;-63
2024/01/16 12:38:10;;;;;;;4.53;4.13;;;15.30;30.00;;;;;;5054167;28;20025;-66
2024/01/16 12:40:37;;;;;;;4.70;4.30;;;15.00;31.20;;;;;;5054273;28;20021;-69